Time;durP1;ratioP1;P1;durP2;ratioP2;P2;SDS_P1;SDS_P2;PMS_P1;PMS_P2;Temp;Humidity;BMP_temperature;BMP_pressure;BME280_temperature;BME280_humidity;BME280_pressure;Samples;Min_cycle;Max_cycle;Signal;HPM_P1;HPM_P2
2022/05/10 00:00:03;;;;;;;;;22.50;21.75;;;;;;;;5032780;28;45429;-68
2022/05/10 00:02:29;;;;;;;;;19.25;19.25;;;;;;;;5027549;28;45517;-70
2022/05/10 00:04:55;;;;;;;;;22.75;20.25;;;;;;;;5029726;28;46443;-69
2022/05/10 00:07:21;;;;;;;;;22.00;21.00;;;;;;;;5026811;28;45479;-69
2022/05/10 00:09:46;;;;;;;;;27.25;24.75;;;;;;;;5028647;28;45654;-69
2022/05/10 00:12:11;;;;;;;;;26.50;22.50;;;;;;;;5030082;28;45381;-70
2022/05/10 00:14:38;;;;;;;;;23.50;22.25;;;;;;;;5027005;28;47764;-69
2022/05/10 00:17:03;;;;;;;;;21.25;19.25;;;;;;;;5026968;28;45494;-69
2022/05/10 00:19:30;;;;;;;;;26.75;25.00;;;;;;;;5044095;28;45612;-69
2022/05/10 00:21:56;;;;;;;;;30.00;27.00;;;;;;;;5028657;28;45605;-69
2022/05/10 00:24:21;;;;;;;;;26.25;26.00;;;;;;;;5028275;28;46531;-69
2022/05/10 00:26:48;;;;;;;;;23.75;22.50;;;;;;;;5028165;28;45477;-69
2022/05/10 00:29:13;;;;;;;;;28.50;27.75;;;;;;;;5027095;28;45609;-70
2022/05/10 00:31:38;;;;;;;;;27.50;25.00;;;;;;;;5024795;28;45816;-69
2022/05/10 00:34:03;;;;;;;;;24.25;24.25;;;;;;;;5044116;28;47551;-69
2022/05/10 00:36:29;;;;;;;;;25.25;23.50;;;;;;;;5032377;28;45734;-69
2022/05/10 00:38:55;;;;;;;;;20.50;18.75;;;;;;;;5032245;28;45571;-68
2022/05/10 00:41:26;;;;;;;;;29.75;27.00;;;;;;;;5031557;28;45545;-68
2022/05/10 00:43:55;;;;;;;;;22.50;20.25;;;;;;;;5031594;28;45529;-69
2022/05/10 00:46:31;;;;;;;;;29.00;27.25;;;;;;;;5032334;28;45766;-68
2022/05/10 00:48:59;;;;;;;;;26.50;26.25;;;;;;;;5029362;28;45452;-69
2022/05/10 00:51:31;;;;;;;;;26.75;26.00;;;;;;;;5031768;28;45834;-69
2022/05/10 00:54:15;;;;;;;;;25.50;24.50;;;;;;;;5033681;28;46008;-69
2022/05/10 00:56:44;;;;;;;;;28.75;27.75;;;;;;;;5033514;28;45481;-69
2022/05/10 00:59:21;;;;;;;;;27.75;26.75;;;;;;;;5030063;28;45539;-70
2022/05/10 01:01:49;;;;;;;;;23.75;20.75;;;;;;;;5031059;28;45481;-70
2022/05/10 01:04:17;;;;;;;;;29.50;27.25;;;;;;;;5031450;28;48343;-69
2022/05/10 01:07:01;;;;;;;;;29.75;28.75;;;;;;;;5033462;28;45603;-69
2022/05/10 01:09:32;;;;;;;;;28.00;24.75;;;;;;;;5030834;28;45373;-69
2022/05/10 01:11:58;;;;;;;;;27.75;26.75;;;;;;;;5034985;28;45428;-69
2022/05/10 01:14:23;;;;;;;;;27.75;26.50;;;;;;;;5032455;28;45669;-70
2022/05/10 01:16:48;;;;;;;;;38.75;28.75;;;;;;;;5027390;28;45540;-68
2022/05/10 01:19:14;;;;;;;;;28.75;27.50;;;;;;;;5037735;28;45690;-68
2022/05/10 01:21:58;;;;;;;;;24.75;24.75;;;;;;;;5033020;28;45754;-68
2022/05/10 01:24:32;;;;;;;;;26.75;26.00;;;;;;;;5033434;28;45464;-69
2022/05/10 01:27:02;;;;;;;;;28.25;27.25;;;;;;;;5033453;28;45380;-69
2022/05/10 01:29:31;;;;;;;;;26.50;25.00;;;;;;;;5027848;28;45487;-68
2022/05/10 01:34:43;;;;;;;;;32.00;28.50;;;;;;;;5032246;28;45720;-69
2022/05/10 01:37:11;;;;;;;;;30.25;29.25;;;;;;;;5030982;28;46293;-69
2022/05/10 01:39:42;;;;;;;;;33.50;33.00;;;;;;;;5031393;28;45564;-68
2022/05/10 01:42:11;;;;;;;;;40.75;35.75;;;;;;;;5030597;28;45441;-68
2022/05/10 01:44:36;;;;;;;;;35.25;35.00;;;;;;;;5030696;28;45804;-68
2022/05/10 01:47:07;;;;;;;;;36.25;33.00;;;;;;;;5027105;28;45876;-69
2022/05/10 01:49:45;;;;;;;;;41.75;36.00;;;;;;;;5022845;28;45908;-69
2022/05/10 01:52:25;;;;;;;;;36.00;32.75;;;;;;;;5032531;28;45971;-68
2022/05/10 01:55:05;;;;;;;;;36.75;34.00;;;;;;;;5017908;28;45368;-69
2022/05/10 01:57:32;;;;;;;;;37.00;34.25;;;;;;;;5032193;28;45555;-69
2022/05/10 02:00:01;;;;;;;;;36.50;31.25;;;;;;;;5032656;28;45382;-69
2022/05/10 02:02:27;;;;;;;;;38.75;33.50;;;;;;;;5030350;28;45528;-68
2022/05/10 02:04:55;;;;;;;;;35.75;30.50;;;;;;;;5031431;28;46457;-69
2022/05/10 02:07:23;;;;;;;;;40.75;37.00;;;;;;;;5031456;28;45809;-68
2022/05/10 02:09:52;;;;;;;;;34.75;32.75;;;;;;;;5031867;28;45624;-68
2022/05/10 02:12:31;;;;;;;;;39.75;36.25;;;;;;;;5033003;28;45604;-68
2022/05/10 02:15:00;;;;;;;;;35.50;32.75;;;;;;;;5033759;28;45402;-68
2022/05/10 02:17:58;;;;;;;;;34.50;30.75;;;;;;;;5031790;28;45401;-69
2022/05/10 02:20:29;;;;;;;;;36.50;32.25;;;;;;;;4989821;28;45476;-69
2022/05/10 02:22:58;;;;;;;;;34.25;33.00;;;;;;;;4973128;28;45945;-68
2022/05/10 02:25:25;;;;;;;;;31.75;28.75;;;;;;;;4973268;28;46430;-69
2022/05/10 02:28:09;;;;;;;;;31.50;30.50;;;;;;;;4989996;28;45914;-69
2022/05/10 02:30:35;;;;;;;;;31.25;29.25;;;;;;;;4989028;28;45419;-69
2022/05/10 02:33:09;;;;;;;;;34.00;29.50;;;;;;;;4991425;28;45643;-68
2022/05/10 02:35:43;;;;;;;;;30.25;28.75;;;;;;;;5006088;28;48761;-69
2022/05/10 02:38:10;;;;;;;;;30.25;30.25;;;;;;;;4989529;28;45758;-68
2022/05/10 02:40:35;;;;;;;;;35.50;33.75;;;;;;;;4989469;28;45631;-69
2022/05/10 02:43:01;;;;;;;;;33.25;30.00;;;;;;;;4989639;28;45393;-69
2022/05/10 02:45:27;;;;;;;;;33.75;30.75;;;;;;;;4972940;28;48293;-69
2022/05/10 02:47:52;;;;;;;;;30.25;27.75;;;;;;;;4974586;28;46033;-69
2022/05/10 02:50:23;;;;;;;;;31.50;30.25;;;;;;;;4989308;28;45762;-69
2022/05/10 02:52:49;;;;;;;;;33.25;30.50;;;;;;;;4989564;28;49982;-69
2022/05/10 02:55:20;;;;;;;;;33.50;31.50;;;;;;;;4980141;28;47650;-69
2022/05/10 02:57:48;;;;;;;;;32.50;30.50;;;;;;;;5031118;28;45466;-68
2022/05/10 03:00:14;;;;;;;;;31.75;28.00;;;;;;;;5031081;28;45541;-68
2022/05/10 03:02:41;;;;;;;;;29.50;29.00;;;;;;;;5030323;28;45491;-68
2022/05/10 03:05:07;;;;;;;;;35.25;33.75;;;;;;;;5029692;28;49033;-68
2022/05/10 03:07:33;;;;;;;;;30.25;26.75;;;;;;;;5030847;28;45536;-68
2022/05/10 03:09:58;;;;;;;;;35.25;31.75;;;;;;;;5029820;28;45427;-68
2022/05/10 03:12:24;;;;;;;;;33.75;32.00;;;;;;;;5031418;28;45320;-69
2022/05/10 03:14:49;;;;;;;;;33.50;29.75;;;;;;;;5032710;28;45669;-68
2022/05/10 03:17:14;;;;;;;;;28.25;26.75;;;;;;;;5030993;28;45404;-69
2022/05/10 03:19:40;;;;;;;;;31.75;30.00;;;;;;;;5042977;28;45475;-69
2022/05/10 03:22:06;;;;;;;;;36.25;33.25;;;;;;;;5034698;28;45859;-69
2022/05/10 03:24:31;;;;;;;;;29.00;27.50;;;;;;;;5029381;28;48513;-69
2022/05/10 03:26:58;;;;;;;;;33.00;31.00;;;;;;;;5031823;28;45463;-69
2022/05/10 03:29:25;;;;;;;;;27.25;27.25;;;;;;;;5030666;28;45523;-69
2022/05/10 03:31:50;;;;;;;;;28.75;27.00;;;;;;;;5030436;28;45455;-69
2022/05/10 03:37:00;;;;;;;;;27.50;27.50;;;;;;;;5030937;28;47891;-68
2022/05/10 03:39:25;;;;;;;;;27.50;25.50;;;;;;;;5030713;28;45722;-68
2022/05/10 03:41:50;;;;;;;;;33.75;29.00;;;;;;;;5031420;28;45873;-68
2022/05/10 03:44:16;;;;;;;;;32.00;32.00;;;;;;;;5028669;28;46366;-68
2022/05/10 03:46:43;;;;;;;;;28.25;26.50;;;;;;;;5027703;28;45638;-69
2022/05/10 03:49:08;;;;;;;;;18.00;17.50;;;;;;;;5029512;28;45771;-69
2022/05/10 03:51:33;;;;;;;;;29.25;29.25;;;;;;;;5030470;28;45583;-69
2022/05/10 03:53:59;;;;;;;;;22.00;21.75;;;;;;;;5032657;28;46443;-69
2022/05/10 03:56:24;;;;;;;;;24.25;23.25;;;;;;;;5025994;28;45805;-69
2022/05/10 03:58:50;;;;;;;;;30.25;28.00;;;;;;;;5019708;28;45678;-69
2022/05/10 04:01:18;;;;;;;;;22.25;21.50;;;;;;;;5018340;28;46139;-69
2022/05/10 04:03:44;;;;;;;;;24.75;24.75;;;;;;;;5030651;28;46095;-68
2022/05/10 04:06:10;;;;;;;;;32.25;29.50;;;;;;;;5031043;28;45639;-68
2022/05/10 04:08:36;;;;;;;;;33.50;29.25;;;;;;;;5031743;28;45424;-69
2022/05/10 04:11:05;;;;;;;;;30.75;27.75;;;;;;;;5032548;28;45829;-69
2022/05/10 04:13:31;;;;;;;;;33.75;31.75;;;;;;;;5031819;28;46495;-69
2022/05/10 04:15:57;;;;;;;;;36.75;34.00;;;;;;;;5049272;28;45520;-69
2022/05/10 04:18:22;;;;;;;;;24.25;23.50;;;;;;;;5033190;28;45450;-69
2022/05/10 04:20:48;;;;;;;;;31.50;31.50;;;;;;;;5048221;28;45598;-69
2022/05/10 04:23:13;;;;;;;;;35.75;32.00;;;;;;;;5027840;28;47565;-69
2022/05/10 04:25:38;;;;;;;;;32.75;30.75;;;;;;;;5032253;28;46176;-69
2022/05/10 04:28:05;;;;;;;;;30.25;30.00;;;;;;;;5033870;28;45453;-69
2022/05/10 04:30:30;;;;;;;;;31.25;29.50;;;;;;;;5033674;28;45634;-68
2022/05/10 04:32:55;;;;;;;;;29.25;26.50;;;;;;;;5035233;28;45791;-68
2022/05/10 04:35:21;;;;;;;;;34.50;30.00;;;;;;;;5015649;28;45623;-69
2022/05/10 04:37:46;;;;;;;;;36.25;33.25;;;;;;;;5045931;28;45598;-69
2022/05/10 04:42:55;;;;;;;;;31.50;29.25;;;;;;;;5031827;28;45687;-68
2022/05/10 04:45:21;;;;;;;;;35.75;32.00;;;;;;;;5033703;28;45642;-68
2022/05/10 04:47:46;;;;;;;;;33.00;32.00;;;;;;;;5035075;28;46230;-69
2022/05/10 04:50:11;;;;;;;;;32.00;30.75;;;;;;;;5033481;28;45612;-68
2022/05/10 04:52:37;;;;;;;;;32.50;30.50;;;;;;;;5033550;28;46329;-69
2022/05/10 04:55:03;;;;;;;;;37.00;33.75;;;;;;;;5032122;28;45765;-67
2022/05/10 04:57:29;;;;;;;;;40.25;35.50;;;;;;;;5033085;28;45374;-69
2022/05/10 04:59:54;;;;;;;;;39.00;35.00;;;;;;;;5034917;28;45416;-69
2022/05/10 05:02:19;;;;;;;;;38.00;35.25;;;;;;;;5032703;28;46486;-68
2022/05/10 05:04:44;;;;;;;;;42.00;37.25;;;;;;;;5031175;28;45608;-68
2022/05/10 05:07:10;;;;;;;;;49.50;42.00;;;;;;;;5031555;28;45642;-69
2022/05/10 05:09:35;;;;;;;;;42.50;37.00;;;;;;;;5031791;28;45454;-68
2022/05/10 05:12:01;;;;;;;;;42.50;35.75;;;;;;;;5032907;28;48992;-69
2022/05/10 05:14:26;;;;;;;;;31.75;30.50;;;;;;;;5031501;28;46254;-69
2022/05/10 05:16:54;;;;;;;;;38.00;35.00;;;;;;;;5044182;28;45756;-69
2022/05/10 05:19:19;;;;;;;;;34.00;31.00;;;;;;;;5021073;28;45361;-70
2022/05/10 05:21:44;;;;;;;;;29.75;28.50;;;;;;;;5015117;28;47402;-67
2022/05/10 05:24:11;;;;;;;;;19.00;18.75;;;;;;;;5034703;28;45603;-71
2022/05/10 05:26:36;;;;;;;;;25.50;22.00;;;;;;;;5029130;28;45614;-72
2022/05/10 05:29:03;;;;;;;;;26.50;23.75;;;;;;;;5033008;28;45355;-73
2022/05/10 05:31:29;;;;;;;;;26.00;23.75;;;;;;;;5032781;28;46755;-71
2022/05/10 05:33:55;;;;;;;;;18.75;17.25;;;;;;;;5031714;28;46092;-71
2022/05/10 05:36:21;;;;;;;;;20.75;20.75;;;;;;;;5048892;28;45679;-72
2022/05/10 05:38:46;;;;;;;;;12.25;12.25;;;;;;;;5033946;28;45421;-71
2022/05/10 05:41:12;;;;;;;;;13.50;12.50;;;;;;;;5031814;28;48080;-70
2022/05/10 05:43:37;;;;;;;;;15.75;14.50;;;;;;;;5034290;28;45513;-69
2022/05/10 05:46:03;;;;;;;;;15.50;14.50;;;;;;;;5034452;28;45717;-69
2022/05/10 05:48:29;;;;;;;;;16.75;16.75;;;;;;;;5033090;28;45568;-69
2022/05/10 05:50:54;;;;;;;;;16.75;16.50;;;;;;;;5034706;28;46153;-69
2022/05/10 05:53:19;;;;;;;;;18.25;14.75;;;;;;;;5032503;28;45473;-69
2022/05/10 05:55:47;;;;;;;;;16.50;16.50;;;;;;;;5030307;28;45444;-70
2022/05/10 05:58:13;;;;;;;;;15.00;15.00;;;;;;;;5022104;28;45532;-69
2022/05/10 06:00:38;;;;;;;;;16.75;15.00;;;;;;;;5034566;28;45937;-69
2022/05/10 06:03:03;;;;;;;;;19.75;18.25;;;;;;;;5036804;28;45468;-69
2022/05/10 06:05:29;;;;;;;;;15.00;14.00;;;;;;;;5033054;28;45366;-69
2022/05/10 06:07:55;;;;;;;;;16.00;14.25;;;;;;;;5029178;28;45437;-70
2022/05/10 06:10:20;;;;;;;;;16.50;16.50;;;;;;;;5022808;28;45654;-69
2022/05/10 06:12:46;;;;;;;;;12.00;12.00;;;;;;;;5034200;28;45377;-69
2022/05/10 06:15:14;;;;;;;;;13.25;13.25;;;;;;;;5034749;28;45468;-70
2022/05/10 06:17:40;;;;;;;;;16.50;16.50;;;;;;;;5031310;28;45717;-70
2022/05/10 06:20:09;;;;;;;;;16.75;15.00;;;;;;;;5027548;28;46753;-70
2022/05/10 06:22:35;;;;;;;;;11.75;11.75;;;;;;;;5031018;28;45283;-70
2022/05/10 06:25:00;;;;;;;;;14.75;14.75;;;;;;;;5033007;28;45357;-70
2022/05/10 06:27:25;;;;;;;;;18.25;17.00;;;;;;;;5032565;28;45179;-71
2022/05/10 06:29:51;;;;;;;;;15.50;15.00;;;;;;;;5032757;28;47327;-70
2022/05/10 06:32:23;;;;;;;;;15.25;15.25;;;;;;;;5028105;28;45350;-70
2022/05/10 06:34:50;;;;;;;;;15.75;15.75;;;;;;;;5032690;28;45345;-70
2022/05/10 06:40:03;;;;;;;;;16.00;16.00;;;;;;;;5034010;28;45804;-69
2022/05/10 06:42:28;;;;;;;;;17.25;17.25;;;;;;;;5031074;28;45460;-70
2022/05/10 06:44:54;;;;;;;;;15.75;14.75;;;;;;;;5033686;28;45373;-69
2022/05/10 06:47:19;;;;;;;;;16.75;15.25;;;;;;;;5033179;28;45437;-70
2022/05/10 06:49:45;;;;;;;;;16.00;14.25;;;;;;;;5033274;28;46472;-69
2022/05/10 06:52:10;;;;;;;;;13.00;13.00;;;;;;;;5033460;28;45436;-69
2022/05/10 06:54:35;;;;;;;;;13.50;13.00;;;;;;;;5033837;28;45532;-70
2022/05/10 06:57:00;;;;;;;;;15.25;13.75;;;;;;;;5036012;28;45528;-70
2022/05/10 06:59:25;;;;;;;;;16.25;15.00;;;;;;;;5033646;28;46112;-69
2022/05/10 07:01:51;;;;;;;;;18.25;18.25;;;;;;;;5033753;28;45558;-69
2022/05/10 07:04:16;;;;;;;;;16.50;13.50;;;;;;;;5033592;28;45370;-69
2022/05/10 07:06:41;;;;;;;;;17.75;17.75;;;;;;;;5033450;28;45451;-69
2022/05/10 07:09:06;;;;;;;;;13.50;13.25;;;;;;;;5034450;28;48259;-69
2022/05/10 07:11:32;;;;;;;;;14.00;13.50;;;;;;;;5033029;28;46005;-70
2022/05/10 07:13:57;;;;;;;;;17.50;17.50;;;;;;;;5033942;28;45412;-69
2022/05/10 07:16:22;;;;;;;;;20.00;17.00;;;;;;;;5048900;28;45502;-69
2022/05/10 07:18:47;;;;;;;;;14.75;14.25;;;;;;;;5048588;28;47514;-71
2022/05/10 07:21:12;;;;;;;;;13.75;13.75;;;;;;;;5033222;28;46070;-70
2022/05/10 07:23:38;;;;;;;;;13.25;13.25;;;;;;;;5032580;28;45772;-69
2022/05/10 07:26:04;;;;;;;;;15.25;14.25;;;;;;;;5033484;28;45398;-68
2022/05/10 07:28:29;;;;;;;;;17.25;13.75;;;;;;;;5033011;28;45409;-69
2022/05/10 07:30:56;;;;;;;;;19.75;18.25;;;;;;;;5033039;28;45389;-69
2022/05/10 07:33:21;;;;;;;;;13.25;13.25;;;;;;;;5033967;28;45275;-70
2022/05/10 07:38:30;;;;;;;;;13.75;12.75;;;;;;;;5033045;28;45848;-70
2022/05/10 07:40:56;;;;;;;;;19.25;17.00;;;;;;;;5030176;28;45397;-69
2022/05/10 07:43:21;;;;;;;;;16.50;14.00;;;;;;;;5032351;28;45471;-70
2022/05/10 07:45:51;;;;;;;;;13.00;13.00;;;;;;;;5036808;28;45729;-69
2022/05/10 07:48:16;;;;;;;;;13.75;11.00;;;;;;;;5037911;28;45861;-72
2022/05/10 07:50:42;;;;;;;;;15.50;15.00;;;;;;;;5036134;28;46073;-71
2022/05/10 07:53:11;;;;;;;;;16.50;12.50;;;;;;;;5048956;28;45702;-69
2022/05/10 07:55:37;;;;;;;;;15.25;14.75;;;;;;;;5027056;28;45378;-70
2022/05/10 07:58:04;;;;;;;;;16.75;14.00;;;;;;;;5036348;28;45551;-70
2022/05/10 08:00:29;;;;;;;;;12.00;12.00;;;;;;;;5052005;28;45586;-69
2022/05/10 08:02:55;;;;;;;;;16.75;13.25;;;;;;;;5050382;28;45464;-70
2022/05/10 08:05:21;;;;;;;;;18.25;15.50;;;;;;;;5033067;28;45684;-68
2022/05/10 08:07:47;;;;;;;;;17.50;16.75;;;;;;;;5036311;28;45837;-70
2022/05/10 08:10:12;;;;;;;;;9.25;9.25;;;;;;;;5035225;28;45837;-70
2022/05/10 08:12:38;;;;;;;;;13.25;13.00;;;;;;;;5036472;28;45334;-70
2022/05/10 08:15:04;;;;;;;;;14.00;14.00;;;;;;;;5036910;28;45354;-69
2022/05/10 08:17:30;;;;;;;;;15.00;14.25;;;;;;;;5034286;28;45980;-70
2022/05/10 08:19:55;;;;;;;;;15.75;13.50;;;;;;;;5034473;28;45502;-70
2022/05/10 08:22:20;;;;;;;;;12.00;11.75;;;;;;;;5035074;28;45476;-70
2022/05/10 08:24:45;;;;;;;;;16.25;16.00;;;;;;;;5051715;28;45393;-70
2022/05/10 08:27:11;;;;;;;;;15.75;15.75;;;;;;;;5036239;28;47923;-70
2022/05/10 08:29:37;;;;;;;;;13.50;13.50;;;;;;;;5064475;28;45430;-69
2022/05/10 08:32:03;;;;;;;;;14.00;14.00;;;;;;;;5030979;28;45280;-70
2022/05/10 08:34:28;;;;;;;;;12.00;12.00;;;;;;;;5025384;28;45374;-70
2022/05/10 08:36:54;;;;;;;;;14.25;14.25;;;;;;;;5034582;28;47926;-70
2022/05/10 08:39:19;;;;;;;;;13.75;13.75;;;;;;;;5036808;28;45377;-70
2022/05/10 08:41:48;;;;;;;;;15.75;14.25;;;;;;;;5037043;28;45302;-71
2022/05/10 08:44:15;;;;;;;;;12.25;11.75;;;;;;;;5035836;28;45461;-69
2022/05/10 08:46:42;;;;;;;;;11.25;11.25;;;;;;;;5035530;28;45385;-70
2022/05/10 08:49:12;;;;;;;;;13.25;12.00;;;;;;;;5035829;28;45614;-70
2022/05/10 08:51:38;;;;;;;;;11.75;11.50;;;;;;;;5034750;28;45356;-70
2022/05/10 08:54:03;;;;;;;;;8.50;8.50;;;;;;;;5049493;28;45605;-69
2022/05/10 08:56:31;;;;;;;;;11.25;11.25;;;;;;;;5033344;28;46428;-69
2022/05/10 08:59:02;;;;;;;;;10.00;10.00;;;;;;;;5034340;28;45421;-70
2022/05/10 09:01:31;;;;;;;;;10.75;10.75;;;;;;;;5035535;28;45804;-70
2022/05/10 09:04:14;;;;;;;;;12.00;12.00;;;;;;;;5034347;28;45329;-69
2022/05/10 09:06:39;;;;;;;;;12.25;12.25;;;;;;;;5019640;28;46421;-71
2022/05/10 09:09:23;;;;;;;;;10.75;10.75;;;;;;;;5037549;28;45378;-70
2022/05/10 09:11:51;;;;;;;;;10.75;10.75;;;;;;;;5037421;28;45333;-70
2022/05/10 09:14:18;;;;;;;;;14.25;13.00;;;;;;;;5035242;28;45631;-71
2022/05/10 09:16:44;;;;;;;;;11.25;11.25;;;;;;;;5047245;28;47580;-71
2022/05/10 09:19:10;;;;;;;;;12.00;11.25;;;;;;;;5022280;28;45389;-70
2022/05/10 09:21:50;;;;;;;;;8.75;8.75;;;;;;;;5035522;28;45354;-71
2022/05/10 09:24:23;;;;;;;;;8.00;8.00;;;;;;;;5031869;28;45459;-70
2022/05/10 09:26:50;;;;;;;;;11.00;11.00;;;;;;;;5036751;28;45454;-70
2022/05/10 09:29:15;;;;;;;;;9.50;9.50;;;;;;;;5034679;28;45456;-71
2022/05/10 09:37:12;;;;;;;;;13.25;13.25;;;;;;;;5033667;28;45891;-69
2022/05/10 09:39:39;;;;;;;;;10.75;10.50;;;;;;;;5034976;28;45223;-71
2022/05/10 09:42:05;;;;;;;;;12.25;12.25;;;;;;;;5034766;28;45345;-72
2022/05/10 09:44:30;;;;;;;;;11.25;11.25;;;;;;;;5032186;28;45931;-70
2022/05/10 09:47:12;;;;;;;;;9.25;8.00;;;;;;;;5034536;28;46441;-70
2022/05/10 09:49:38;;;;;;;;;9.50;9.25;;;;;;;;5034628;28;45500;-70
2022/05/10 09:52:05;;;;;;;;;9.00;9.00;;;;;;;;5033169;28;45391;-71
2022/05/10 09:54:41;;;;;;;;;10.00;10.00;;;;;;;;5035173;28;45318;-70
2022/05/10 09:57:09;;;;;;;;;8.75;8.75;;;;;;;;5032497;28;47817;-69
2022/05/10 09:59:47;;;;;;;;;9.25;9.25;;;;;;;;5034649;28;45219;-70
2022/05/10 10:02:45;;;;;;;;;9.75;8.75;;;;;;;;5034528;28;45573;-69
2022/05/10 10:05:19;;;;;;;;;9.50;8.00;;;;;;;;4992758;28;45573;-71
2022/05/10 10:07:49;;;;;;;;;10.00;10.00;;;;;;;;4975561;28;47641;-71
2022/05/10 10:10:17;;;;;;;;;9.50;9.50;;;;;;;;4992673;28;45479;-71
2022/05/10 10:12:43;;;;;;;;;7.25;7.25;;;;;;;;4976652;28;45357;-70
2022/05/10 10:15:21;;;;;;;;;10.25;9.00;;;;;;;;4994844;28;45405;-70
2022/05/10 10:17:56;;;;;;;;;9.75;9.75;;;;;;;;4977101;28;47698;-70
2022/05/10 10:20:22;;;;;;;;;8.50;8.25;;;;;;;;4992261;28;46551;-71
2022/05/10 10:22:49;;;;;;;;;10.00;10.00;;;;;;;;4992772;28;45359;-71
2022/05/10 10:25:25;;;;;;;;;9.75;9.75;;;;;;;;4992980;28;45508;-71
2022/05/10 10:27:50;;;;;;;;;8.00;8.00;;;;;;;;4992623;28;46488;-70
2022/05/10 10:30:21;;;;;;;;;7.50;7.50;;;;;;;;4993684;28;45367;-69
2022/05/10 10:32:48;;;;;;;;;7.00;7.00;;;;;;;;4993778;28;45403;-69
2022/05/10 10:35:43;;;;;;;;;9.00;9.00;;;;;;;;4992729;28;45398;-71
2022/05/10 10:38:08;;;;;;;;;9.50;8.25;;;;;;;;4971459;28;45488;-71
2022/05/10 10:40:39;;;;;;;;;7.25;7.25;;;;;;;;5009614;28;45425;-71
2022/05/10 10:43:23;;;;;;;;;8.25;7.50;;;;;;;;5032090;28;45527;-71
2022/05/10 10:45:54;;;;;;;;;9.25;8.25;;;;;;;;5018315;28;45519;-71
2022/05/10 10:48:25;;;;;;;;;9.00;9.00;;;;;;;;5034996;28;45732;-70
2022/05/10 10:50:51;;;;;;;;;8.50;8.50;;;;;;;;5029242;28;45424;-70
2022/05/10 10:53:16;;;;;;;;;1.00;1.00;;;;;;;;5032286;28;45376;-69
2022/05/10 10:56:04;;;;;;;;;8.75;8.25;;;;;;;;5032493;28;45464;-69
2022/05/10 10:58:32;;;;;;;;;9.25;8.00;;;;;;;;5033544;28;45893;-71
2022/05/10 11:01:04;;;;;;;;;8.50;8.50;;;;;;;;5031656;28;45366;-70
2022/05/10 11:03:32;;;;;;;;;8.25;6.75;;;;;;;;5034792;28;45786;-71
2022/05/10 11:06:18;;;;;;;;;7.75;7.75;;;;;;;;5036403;28;45452;-70
2022/05/10 11:09:04;;;;;;;;;7.00;7.00;;;;;;;;5047571;28;48681;-70
2022/05/10 11:11:41;;;;;;;;;9.00;8.00;;;;;;;;5035588;28;45369;-71
2022/05/10 11:14:09;;;;;;;;;7.25;7.25;;;;;;;;5034658;28;45340;-70
2022/05/10 11:16:43;;;;;;;;;10.00;9.25;;;;;;;;5033381;28;45609;-70
2022/05/10 11:19:17;;;;;;;;;9.25;9.25;;;;;;;;5033474;28;45686;-71
2022/05/10 11:21:42;;;;;;;;;9.00;9.00;;;;;;;;5031866;28;45540;-71
2022/05/10 11:24:20;;;;;;;;;8.00;8.00;;;;;;;;5030249;28;45901;-73
2022/05/10 11:26:46;;;;;;;;;8.75;8.75;;;;;;;;5033339;28;48029;-70
2022/05/10 11:29:22;;;;;;;;;12.25;12.25;;;;;;;;5030858;28;45292;-70
2022/05/10 11:31:57;;;;;;;;;8.50;8.50;;;;;;;;5032521;28;45635;-71
2022/05/10 11:34:26;;;;;;;;;8.00;8.00;;;;;;;;5034257;28;45470;-71
2022/05/10 11:36:52;;;;;;;;;7.75;7.75;;;;;;;;5033326;28;45963;-72
2022/05/10 11:39:33;;;;;;;;;5.75;5.75;;;;;;;;5047341;28;48679;-72
2022/05/10 11:42:01;;;;;;;;;9.25;9.25;;;;;;;;5033886;28;45461;-71
2022/05/10 11:44:45;;;;;;;;;10.00;8.75;;;;;;;;5028657;28;45609;-71
2022/05/10 11:47:28;;;;;;;;;9.75;9.75;;;;;;;;5028079;28;45204;-71
2022/05/10 11:50:20;;;;;;;;;11.25;10.25;;;;;;;;5032688;28;46910;-72
2022/05/10 11:53:04;;;;;;;;;8.25;8.25;;;;;;;;5030686;28;45309;-71
2022/05/10 11:55:38;;;;;;;;;11.25;10.50;;;;;;;;5032849;28;45832;-71
2022/05/10 11:58:07;;;;;;;;;9.25;7.75;;;;;;;;5031531;28;45430;-70
2022/05/10 12:00:32;;;;;;;;;10.25;9.25;;;;;;;;5031144;28;48665;-71
2022/05/10 12:03:02;;;;;;;;;5.75;5.75;;;;;;;;5029187;28;45378;-71
2022/05/10 12:05:27;;;;;;;;;10.25;9.25;;;;;;;;5030402;28;45349;-69
2022/05/10 12:07:54;;;;;;;;;12.25;11.50;;;;;;;;5028254;28;45715;-69
2022/05/10 12:10:22;;;;;;;;;7.00;7.00;;;;;;;;5020951;28;48032;-72
2022/05/10 12:12:47;;;;;;;;;8.75;8.25;;;;;;;;5030302;28;45434;-72
2022/05/10 12:23:47;;;;;;;;;6.25;6.25;;;;;;;;5026103;28;45559;-71
2022/05/10 12:26:31;;;;;;;;;8.00;8.00;;;;;;;;5029444;28;45495;-71
2022/05/10 12:28:56;;;;;;;;;7.00;7.00;;;;;;;;5032828;28;45505;-71
2022/05/10 12:31:44;;;;;;;;;9.50;8.75;;;;;;;;5036647;28;45499;-71
2022/05/10 12:34:10;;;;;;;;;8.25;6.75;;;;;;;;5034440;28;45407;-71
2022/05/10 12:36:38;;;;;;;;;12.00;12.00;;;;;;;;5051225;28;45458;-71
2022/05/10 12:39:18;;;;;;;;;9.75;9.75;;;;;;;;5037466;28;45595;-72
2022/05/10 12:42:00;;;;;;;;;11.25;9.50;;;;;;;;5048673;28;48558;-71
2022/05/10 12:44:43;;;;;;;;;9.00;9.00;;;;;;;;5046203;28;45606;-71
2022/05/10 12:47:27;;;;;;;;;8.25;8.25;;;;;;;;5030466;28;45601;-71
2022/05/10 12:50:21;;;;;;;;;8.00;8.00;;;;;;;;5035605;28;45259;-72
2022/05/10 12:52:48;;;;;;;;;7.00;7.00;;;;;;;;5024930;28;46581;-72
2022/05/10 12:55:16;;;;;;;;;11.25;10.25;;;;;;;;5034299;28;45470;-72
2022/05/10 12:58:02;;;;;;;;;10.00;10.00;;;;;;;;5020385;28;45224;-72
2022/05/10 13:00:33;;;;;;;;;8.25;8.00;;;;;;;;5034089;28;45483;-70
2022/05/10 13:03:09;;;;;;;;;8.25;7.50;;;;;;;;5036174;28;46457;-71
2022/05/10 13:05:37;;;;;;;;;9.25;9.25;;;;;;;;5035311;28;45326;-71
2022/05/10 13:08:02;;;;;;;;;8.25;8.25;;;;;;;;5035542;28;45387;-72
2022/05/10 13:10:29;;;;;;;;;7.00;7.00;;;;;;;;5035251;28;45302;-72
2022/05/10 13:13:00;;;;;;;;;9.00;9.00;;;;;;;;5033824;28;46056;-71
2022/05/10 13:15:26;;;;;;;;;7.00;7.00;;;;;;;;5033977;28;46600;-71
2022/05/10 13:17:52;;;;;;;;;8.75;8.75;;;;;;;;5037162;28;45423;-72
2022/05/10 13:20:20;;;;;;;;;9.75;9.00;;;;;;;;5035534;28;45510;-71
2022/05/10 13:22:51;;;;;;;;;10.75;9.25;;;;;;;;5035143;28;46521;-71
2022/05/10 13:25:27;;;;;;;;;8.00;6.50;;;;;;;;5035117;28;45502;-70
2022/05/10 13:27:52;;;;;;;;;8.00;8.00;;;;;;;;5035453;28;45279;-71
2022/05/10 13:30:20;;;;;;;;;8.50;8.50;;;;;;;;5035196;28;46407;-71
2022/05/10 13:32:50;;;;;;;;;9.75;9.75;;;;;;;;5034748;28;48055;-70
2022/05/10 13:35:19;;;;;;;;;7.25;7.25;;;;;;;;5035029;28;45390;-72
2022/05/10 13:37:52;;;;;;;;;6.00;6.00;;;;;;;;5047489;28;45516;-72
2022/05/10 13:40:32;;;;;;;;;9.00;9.00;;;;;;;;5022595;28;45581;-71
2022/05/10 13:43:16;;;;;;;;;9.00;8.75;;;;;;;;5035164;28;47484;-70
2022/05/10 13:45:44;;;;;;;;;8.25;7.00;;;;;;;;5019930;28;45358;-71
2022/05/10 13:48:12;;;;;;;;;6.50;6.00;;;;;;;;5031651;28;45352;-71
2022/05/10 13:50:39;;;;;;;;;7.00;7.00;;;;;;;;5032026;28;45294;-71
2022/05/10 13:53:07;;;;;;;;;8.75;7.00;;;;;;;;5032761;28;47571;-72
2022/05/10 13:55:33;;;;;;;;;7.75;7.75;;;;;;;;5034452;28;45386;-71
2022/05/10 13:58:02;;;;;;;;;6.00;6.00;;;;;;;;5034693;28;45424;-71
2022/05/10 14:00:34;;;;;;;;;6.75;6.75;;;;;;;;5036365;28;45451;-71
2022/05/10 14:03:00;;;;;;;;;10.00;8.50;;;;;;;;5030806;28;47511;-71
2022/05/10 14:05:28;;;;;;;;;6.25;6.25;;;;;;;;5031519;28;46790;-72
2022/05/10 14:08:05;;;;;;;;;10.00;10.00;;;;;;;;5046377;28;45273;-72
2022/05/10 14:10:32;;;;;;;;;9.00;9.00;;;;;;;;5024006;28;45433;-70
2022/05/10 14:12:59;;;;;;;;;9.50;9.50;;;;;;;;5032024;28;47938;-71
2022/05/10 14:15:33;;;;;;;;;7.50;7.50;;;;;;;;5034987;28;45436;-72
2022/05/10 14:18:03;;;;;;;;;6.00;6.00;;;;;;;;5036588;28;45452;-72
2022/05/10 14:20:32;;;;;;;;;7.50;7.50;;;;;;;;5034570;28;45476;-73
2022/05/10 14:22:59;;;;;;;;;8.00;8.00;;;;;;;;5034242;28;45771;-72
2022/05/10 14:25:25;;;;;;;;;9.00;7.75;;;;;;;;5032967;28;45552;-72
2022/05/10 14:28:00;;;;;;;;;10.00;9.75;;;;;;;;5032867;28;45441;-71
2022/05/10 14:30:27;;;;;;;;;7.75;7.00;;;;;;;;5033397;28;45408;-70
2022/05/10 14:32:52;;;;;;;;;9.50;7.00;;;;;;;;5033631;28;45714;-72
2022/05/10 14:35:25;;;;;;;;;7.50;7.50;;;;;;;;5029406;28;45436;-71
2022/05/10 14:37:52;;;;;;;;;8.50;8.50;;;;;;;;5026653;28;45696;-70
2022/05/10 14:40:25;;;;;;;;;9.75;8.25;;;;;;;;5032832;28;45540;-70
2022/05/10 14:43:12;;;;;;;;;6.50;6.25;;;;;;;;5032788;28;46641;-70
2022/05/10 14:45:39;;;;;;;;;7.75;7.75;;;;;;;;5032685;28;47707;-70
2022/05/10 14:48:23;;;;;;;;;6.50;6.50;;;;;;;;5035643;28;45350;-69
2022/05/10 14:50:54;;;;;;;;;8.25;8.25;;;;;;;;5035315;28;45274;-69
2022/05/10 14:53:24;;;;;;;;;8.00;8.00;;;;;;;;5032973;28;47473;-70
2022/05/10 14:55:51;;;;;;;;;9.75;8.75;;;;;;;;5033546;28;45483;-70
2022/05/10 14:58:22;;;;;;;;;7.25;7.25;;;;;;;;5032545;28;45461;-68
2022/05/10 15:01:08;;;;;;;;;8.25;8.25;;;;;;;;5035585;28;45368;-72
2022/05/10 15:03:35;;;;;;;;;8.25;8.25;;;;;;;;5033105;28;46370;-71